createdAt,value
2023-04-20T00:01:28.834Z,12.64
2023-04-20T00:04:02.061Z,12.60
2023-04-20T00:06:36.421Z,12.72
2023-04-20T00:09:10.078Z,12.62
2023-04-20T00:11:42.810Z,12.53
2023-04-20T00:14:16.013Z,12.50
2023-04-20T00:16:49.837Z,12.41
2023-04-20T00:19:23.282Z,12.43
2023-04-20T00:21:57.530Z,12.39
2023-04-20T00:24:30.333Z,12.32
2023-04-20T00:27:03.104Z,12.37
2023-04-20T00:29:35.873Z,12.36
2023-04-20T00:32:10.502Z,12.27
2023-04-20T00:34:43.726Z,12.31
2023-04-20T00:37:18.090Z,12.30
2023-04-20T00:39:50.812Z,12.31
2023-04-20T00:42:23.573Z,12.24
2023-04-20T00:44:57.672Z,12.24
2023-04-20T00:47:30.618Z,12.16
2023-04-20T00:50:04.055Z,12.26
2023-04-20T00:52:38.567Z,12.16
2023-04-20T00:55:12.193Z,12.16
2023-04-20T00:57:45.242Z,12.15
2023-04-20T01:00:18.232Z,12.05
2023-04-20T01:02:54.558Z,12.00
2023-04-20T01:05:27.840Z,11.91
2023-04-20T01:08:02.946Z,11.79
2023-04-20T01:10:36.235Z,11.92
2023-04-20T01:13:09.029Z,11.93
2023-04-20T01:15:42.071Z,11.89
2023-04-20T01:18:15.327Z,11.84
2023-04-20T01:20:48.390Z,11.81
2023-04-20T01:23:22.272Z,11.79
2023-04-20T01:25:54.959Z,11.83
2023-04-20T01:28:27.890Z,11.82
2023-04-20T01:31:00.938Z,11.75
2023-04-20T01:33:33.881Z,11.74
2023-04-20T01:36:07.415Z,11.69
2023-04-20T01:38:42.023Z,11.75
2023-04-20T01:41:15.208Z,11.76
2023-04-20T01:43:48.057Z,11.71
2023-04-20T01:46:20.833Z,11.71
2023-04-20T01:48:54.124Z,11.63
2023-04-20T01:51:27.822Z,11.60
2023-04-20T01:54:02.319Z,11.67
2023-04-20T01:56:35.094Z,11.67
2023-04-20T01:59:07.881Z,11.70
2023-04-20T02:01:40.656Z,11.62
2023-04-20T02:04:13.639Z,11.61
2023-04-20T02:06:46.366Z,11.61
2023-04-20T02:09:20.815Z,11.57
2023-04-20T02:11:53.750Z,11.46
2023-04-20T02:14:26.846Z,11.46
2023-04-20T02:17:00.901Z,11.48
2023-04-20T02:19:33.971Z,11.45
2023-04-20T02:22:07.202Z,11.43
2023-04-20T02:24:41.497Z,11.34
2023-04-20T02:27:14.350Z,11.38
2023-04-20T02:29:47.088Z,11.34
2023-04-20T02:32:20.312Z,11.25
2023-04-20T02:34:56.756Z,11.27
2023-04-20T02:37:32.157Z,11.23
2023-04-20T02:40:08.861Z,11.21
2023-04-20T02:42:42.036Z,11.24
2023-04-20T02:45:17.370Z,11.18
2023-04-20T02:47:52.004Z,11.16
2023-04-20T02:50:25.865Z,11.12
2023-04-20T02:53:19.214Z,11.14
2023-04-20T02:55:58.430Z,11.17
2023-04-20T02:58:45.056Z,11.16
2023-04-20T03:01:31.278Z,11.17
2023-04-20T03:04:10.988Z,11.12
2023-04-20T03:06:51.484Z,11.15
2023-04-20T03:09:31.126Z,11.11
2023-04-20T03:12:29.465Z,11.08
2023-04-20T03:15:28.513Z,11.07
2023-04-20T03:18:09.881Z,11.18
2023-04-20T03:20:42.798Z,11.10
2023-04-20T03:23:15.969Z,11.10
2023-04-20T03:25:49.121Z,10.97
2023-04-20T03:28:32.413Z,11.01
2023-04-20T03:31:06.685Z,11.00
2023-04-20T03:33:42.885Z,10.92
2023-04-20T03:36:18.887Z,10.96
2023-04-20T03:38:51.909Z,11.01
2023-04-20T03:41:26.131Z,10.96
2023-04-20T03:44:00.306Z,10.88
2023-04-20T03:46:33.704Z,10.95
2023-04-20T03:49:06.831Z,10.93
2023-04-20T03:51:41.504Z,10.92
2023-04-20T03:54:14.237Z,10.93
2023-04-20T03:56:47.147Z,10.85
2023-04-20T03:59:21.635Z,10.95
2023-04-20T04:01:56.623Z,10.88
2023-04-20T04:04:29.676Z,10.96
2023-04-20T04:07:04.191Z,10.82
2023-04-20T04:09:36.898Z,10.88
2023-04-20T04:12:09.720Z,10.90
2023-04-20T04:14:45.193Z,10.90
2023-04-20T04:17:20.302Z,10.92
2023-04-20T04:19:53.143Z,10.94
2023-04-20T04:22:26.210Z,11.00
2023-04-20T04:25:18.463Z,11.02
2023-04-20T04:27:54.733Z,11.02
2023-04-20T04:36:48.384Z,11.03
2023-04-20T04:39:27.029Z,11.07
2023-04-20T04:42:16.759Z,11.03
2023-04-20T04:44:51.789Z,11.12
2023-04-20T04:47:36.660Z,11.12
2023-04-20T04:50:13.062Z,11.08
2023-04-20T04:52:47.624Z,11.17
2023-04-20T04:55:20.640Z,11.00
2023-04-20T04:57:54.050Z,11.12
2023-04-20T05:03:59.931Z,11.19
2023-04-20T05:06:33.138Z,11.26
2023-04-20T05:09:07.174Z,11.24
2023-04-20T05:11:39.916Z,11.23
2023-04-20T05:14:12.666Z,11.30
2023-04-20T05:16:45.698Z,11.25
2023-04-20T05:19:18.857Z,11.28
2023-04-20T05:21:51.753Z,11.33
2023-04-20T05:24:35.701Z,11.38
2023-04-20T05:27:09.086Z,11.37
2023-04-20T05:29:42.512Z,11.37
2023-04-20T05:32:15.134Z,11.45
2023-04-20T05:34:48.142Z,11.30
2023-04-20T05:37:20.773Z,11.34
2023-04-20T05:39:55.656Z,11.46
2023-04-20T05:42:28.461Z,11.34
2023-04-20T05:45:01.212Z,11.46
2023-04-20T05:47:34.049Z,11.49
2023-04-20T05:50:08.620Z,11.53
2023-04-20T05:52:41.785Z,11.52
2023-04-20T05:55:18.390Z,11.54
2023-04-20T05:57:52.985Z,11.50
2023-04-20T06:00:27.082Z,11.50
2023-04-20T06:03:00.566Z,11.54
2023-04-20T06:05:34.913Z,11.60
2023-04-20T06:08:08.032Z,11.52
2023-04-20T06:10:42.480Z,11.54
2023-04-20T06:13:19.945Z,11.55
2023-04-20T06:16:00.425Z,11.65
2023-04-20T06:18:33.399Z,11.63
2023-04-20T06:21:06.305Z,11.62
2023-04-20T06:23:39.185Z,11.70
2023-04-20T06:26:13.659Z,11.67
2023-04-20T06:28:48.451Z,11.78
2023-04-20T06:31:21.711Z,11.70
2023-04-20T06:33:54.626Z,11.73
2023-04-20T06:36:27.708Z,11.68
2023-04-20T06:39:00.486Z,11.78
2023-04-20T06:41:34.555Z,11.78
2023-04-20T06:44:11.978Z,11.77
2023-04-20T06:46:44.820Z,11.84
2023-04-20T06:49:18.075Z,11.85
2023-04-20T06:51:51.090Z,11.95
2023-04-20T06:54:23.911Z,12.00
2023-04-20T06:56:58.487Z,12.02
2023-04-20T06:59:31.550Z,11.93
2023-04-20T07:02:05.171Z,11.92
2023-04-20T07:04:38.506Z,11.99
2023-04-20T07:07:11.321Z,12.08
2023-04-20T07:09:44.124Z,12.02
2023-04-20T07:12:18.161Z,12.06
2023-04-20T07:14:51.437Z,12.14
2023-04-20T07:17:25.367Z,12.06
2023-04-20T07:20:07.409Z,12.00
2023-04-20T07:22:41.322Z,12.24
2023-04-20T07:25:14.205Z,12.15
2023-04-20T07:27:55.016Z,12.14
2023-04-20T07:30:33.567Z,12.17
2023-04-20T07:33:09.882Z,12.09
2023-04-20T07:35:49.082Z,12.09
2023-04-20T07:38:23.534Z,12.10
2023-04-20T07:40:59.535Z,12.17
2023-04-20T07:43:33.950Z,12.09
2023-04-20T07:46:07.485Z,12.08
2023-04-20T07:48:41.354Z,12.16
2023-04-20T07:51:14.301Z,12.14
2023-04-20T07:53:48.573Z,12.13
2023-04-20T07:56:24.542Z,12.11
2023-04-20T07:59:12.940Z,12.13
2023-04-20T08:02:00.548Z,12.15
2023-04-20T08:04:33.696Z,12.16
2023-04-20T08:07:11.305Z,12.09
2023-04-20T08:09:44.341Z,12.20
2023-04-20T08:12:16.920Z,12.09
2023-04-20T08:14:51.830Z,12.13
2023-04-20T08:17:28.169Z,12.22
2023-04-20T08:20:01.259Z,12.14
2023-04-20T08:22:34.455Z,12.00
2023-04-20T08:25:07.556Z,11.96
2023-04-20T08:27:43.076Z,12.09
2023-04-20T08:32:29.935Z,12.08
2023-04-20T08:34:45.447Z,11.89
2023-04-20T08:37:47.484Z,11.88
2023-04-20T08:40:38.946Z,11.97
2023-04-20T08:43:12.642Z,11.83
2023-04-20T08:45:51.826Z,11.81
2023-04-20T08:48:26.600Z,11.85
2023-04-20T08:51:00.071Z,11.83
2023-04-20T08:53:33.746Z,11.73
2023-04-20T08:56:08.506Z,11.78
2023-04-20T08:58:43.424Z,11.87
2023-04-20T09:01:34.809Z,11.68
2023-04-20T09:04:17.638Z,11.71
2023-04-20T09:06:53.128Z,11.67
2023-04-20T09:09:27.152Z,11.69
2023-04-20T09:12:04.059Z,11.68
2023-04-20T09:14:44.077Z,11.65
2023-04-20T09:17:20.166Z,11.72
2023-04-20T09:19:55.789Z,11.65
2023-04-20T09:22:34.932Z,11.70
2023-04-20T09:25:15.533Z,11.76
2023-04-20T09:27:56.799Z,11.78
2023-04-20T09:30:42.850Z,11.79
2023-04-20T09:33:20.287Z,11.83
2023-04-20T09:35:53.187Z,11.85
2023-04-20T09:38:27.911Z,11.84
2023-04-20T09:41:03.044Z,11.85
2023-04-20T09:43:37.028Z,11.91
2023-04-20T09:46:10.555Z,11.96
2023-04-20T09:48:44.932Z,11.93
2023-04-20T09:51:18.727Z,11.95
2023-04-20T09:53:53.030Z,11.96
2023-04-20T09:56:27.929Z,11.92
2023-04-20T09:59:01.458Z,12.00
2023-04-20T10:01:36.133Z,12.00
2023-04-20T10:04:12.413Z,11.99
2023-04-20T10:06:54.833Z,12.00
2023-04-20T10:09:28.413Z,11.97
2023-04-20T10:12:07.392Z,12.03
2023-04-20T10:14:41.616Z,11.99
2023-04-20T10:17:14.895Z,11.95
2023-04-20T10:19:49.377Z,12.04
2023-04-20T10:22:34.020Z,11.97
2023-04-20T10:25:20.511Z,12.09
2023-04-20T10:28:12.856Z,12.18
2023-04-20T10:30:56.138Z,12.12
2023-04-20T10:33:31.646Z,12.31
2023-04-20T10:36:09.890Z,12.32
2023-04-20T10:38:44.155Z,12.42
2023-04-20T10:41:18.770Z,12.44
2023-04-20T10:43:56.812Z,12.39
2023-04-20T10:46:29.908Z,12.43
2023-04-20T10:49:03.853Z,12.64
2023-04-20T10:51:38.105Z,12.63
2023-04-20T10:54:11.566Z,12.60
2023-04-20T10:56:46.190Z,12.77
2023-04-20T10:59:20.813Z,12.78
2023-04-20T11:01:55.469Z,12.66
2023-04-20T11:04:32.231Z,12.53
2023-04-20T11:07:08.752Z,12.54
2023-04-20T11:09:43.100Z,12.59
2023-04-20T11:12:16.150Z,12.52
2023-04-20T11:14:52.960Z,12.43
2023-04-20T11:17:33.509Z,12.36
2023-04-20T11:20:10.962Z,12.36
2023-04-20T11:22:45.677Z,12.42
2023-04-20T11:25:18.484Z,12.45
2023-04-20T11:27:51.234Z,12.44
2023-04-20T11:30:24.656Z,12.47
2023-04-20T11:32:57.467Z,12.49
2023-04-20T11:35:36.903Z,12.69
2023-04-20T11:38:11.161Z,13.10
2023-04-20T11:40:45.642Z,13.17
2023-04-20T11:43:18.548Z,13.16
2023-04-20T11:45:51.460Z,13.19
2023-04-20T11:48:24.388Z,13.55
2023-04-20T11:50:57.320Z,13.70
2023-04-20T11:53:31.313Z,13.86
2023-04-20T11:56:04.510Z,13.75
2023-04-20T11:58:38.241Z,13.71
2023-04-20T12:01:11.333Z,13.77
2023-04-20T12:03:46.992Z,13.64
2023-04-20T12:06:20.522Z,13.73
2023-04-20T12:08:55.329Z,13.78
2023-04-20T12:11:28.341Z,13.76
2023-04-20T12:14:01.285Z,13.79
2023-04-20T12:16:34.004Z,13.92
2023-04-20T12:19:07.033Z,14.14
2023-04-20T12:21:39.959Z,14.42
2023-04-20T12:24:13.953Z,14.58
2023-04-20T12:26:47.088Z,14.64
2023-04-20T12:29:21.075Z,14.75
2023-04-20T12:31:55.594Z,14.78
2023-04-20T12:34:28.425Z,14.93
2023-04-20T12:37:01.374Z,14.99
2023-04-20T12:39:35.521Z,14.99
2023-04-20T12:42:08.291Z,15.06
2023-04-20T12:44:41.632Z,15.00
2023-04-20T12:47:14.748Z,14.95
2023-04-20T12:49:47.625Z,15.14
2023-04-20T12:52:20.577Z,15.16
2023-04-20T12:54:54.612Z,15.29
2023-04-20T12:57:27.330Z,15.28
2023-04-20T13:00:02.752Z,15.32
2023-04-20T13:02:35.753Z,15.45
2023-04-20T13:05:08.664Z,15.63
2023-04-20T13:07:41.385Z,15.72
2023-04-20T13:10:15.705Z,15.81
2023-04-20T13:12:48.618Z,15.94
2023-04-20T13:15:31.917Z,16.01
2023-04-20T13:18:11.941Z,16.13
2023-04-20T13:20:46.177Z,16.36
2023-04-20T13:23:19.132Z,16.37
2023-04-20T13:25:53.448Z,16.53
2023-04-20T13:28:26.224Z,16.47
2023-04-20T13:30:58.944Z,16.33
2023-04-20T13:33:31.890Z,16.62
2023-04-20T13:36:04.616Z,16.66
2023-04-20T13:38:37.335Z,16.47
2023-04-20T13:41:11.446Z,16.63
2023-04-20T13:43:44.852Z,16.42
2023-04-20T13:46:18.244Z,16.34
2023-04-20T13:48:51.362Z,16.12
2023-04-20T13:51:24.177Z,16.10
2023-04-20T13:53:57.101Z,15.92
2023-04-20T13:56:31.346Z,15.82
2023-04-20T13:59:04.254Z,15.73
2023-04-20T14:01:37.108Z,15.55
2023-04-20T14:04:10.595Z,15.46
2023-04-20T14:06:44.158Z,15.40
2023-04-20T14:09:17.213Z,15.42
2023-04-20T14:11:54.996Z,15.35
2023-04-20T14:14:30.113Z,15.39
2023-04-20T14:17:03.221Z,15.52
2023-04-20T14:19:36.003Z,15.51
2023-04-20T14:22:08.827Z,15.47
2023-04-20T14:24:42.157Z,15.56
2023-04-20T14:27:16.469Z,15.67
2023-04-20T14:29:49.300Z,15.86
2023-04-20T14:32:22.150Z,15.74
2023-04-20T14:34:55.058Z,15.77
2023-04-20T14:37:28.092Z,15.95
2023-04-20T14:40:00.749Z,15.93
2023-04-20T14:42:36.453Z,16.08
2023-04-20T14:45:10.770Z,16.10
2023-04-20T14:47:44.296Z,16.01
2023-04-20T14:50:17.232Z,15.93
2023-04-20T14:52:50.701Z,15.89
2023-04-20T14:55:25.953Z,15.91
2023-04-20T14:58:00.364Z,15.87
2023-04-20T15:00:33.529Z,15.82
2023-04-20T15:03:06.468Z,15.87
2023-04-20T15:05:41.163Z,15.71
2023-04-20T15:08:16.826Z,15.63
2023-04-20T15:10:51.991Z,15.57
2023-04-20T15:13:26.546Z,15.46
2023-04-20T15:15:59.544Z,15.46
2023-04-20T15:18:32.619Z,15.58
2023-04-20T15:21:05.785Z,15.62
2023-04-20T15:23:38.677Z,15.61
2023-04-20T15:26:11.549Z,15.60
2023-04-20T15:28:47.109Z,15.62
2023-04-20T15:31:20.394Z,15.58
2023-04-20T15:33:53.305Z,15.48
2023-04-20T15:36:26.396Z,15.44
2023-04-20T15:38:59.359Z,15.54
2023-04-20T15:41:32.148Z,15.51
2023-04-20T15:44:06.884Z,15.54
2023-04-20T15:46:39.971Z,15.57
2023-04-20T15:49:12.794Z,15.55
2023-04-20T15:51:46.768Z,15.55
2023-04-20T15:54:23.551Z,15.56
2023-04-20T15:56:56.900Z,15.51
2023-04-20T15:59:34.614Z,15.52
2023-04-20T16:02:09.653Z,15.46
2023-04-20T16:04:43.232Z,15.42
2023-04-20T16:07:16.458Z,15.34
2023-04-20T16:09:49.696Z,15.35
2023-04-20T16:12:22.586Z,15.48
2023-04-20T16:14:57.240Z,15.49
2023-04-20T16:17:30.176Z,15.43
2023-04-20T16:20:03.182Z,15.53
2023-04-20T16:22:36.009Z,15.49
2023-04-20T16:25:12.332Z,15.47
2023-04-20T16:27:45.202Z,15.45
2023-04-20T16:30:19.564Z,15.46
2023-04-20T16:32:53.172Z,15.54
2023-04-20T16:35:26.383Z,15.45
2023-04-20T16:37:59.431Z,15.33
2023-04-20T16:40:32.304Z,15.30
2023-04-20T16:43:05.093Z,15.22
2023-04-20T16:45:39.269Z,15.11
2023-04-20T16:48:12.222Z,15.06
2023-04-20T16:50:44.828Z,15.02
2023-04-20T16:53:17.639Z,14.99
2023-04-20T16:55:50.868Z,14.90
2023-04-20T16:58:23.724Z,14.86
2023-04-20T17:00:57.837Z,14.79
2023-04-20T17:03:31.423Z,14.81
2023-04-20T17:06:07.502Z,14.79
2023-04-20T17:08:40.291Z,14.77
2023-04-20T17:11:13.031Z,14.79
2023-04-20T17:13:45.971Z,14.74
2023-04-20T17:16:20.389Z,14.78
2023-04-20T17:18:53.472Z,14.76
2023-04-20T17:21:29.027Z,14.79
2023-04-20T17:24:02.043Z,14.81
2023-04-20T17:26:37.037Z,14.76
2023-04-20T17:29:10.368Z,14.74
2023-04-20T17:31:45.763Z,14.74
2023-04-20T17:34:20.195Z,14.71
2023-04-20T17:36:53.136Z,14.69
2023-04-20T17:39:26.154Z,14.62
2023-04-20T17:41:58.779Z,14.62
2023-04-20T17:44:31.507Z,14.61
2023-04-20T17:47:06.474Z,14.56
2023-04-20T17:49:41.363Z,14.53
2023-04-20T17:52:19.382Z,14.51
2023-04-20T17:54:53.436Z,14.42
2023-04-20T17:57:29.559Z,14.43
2023-04-20T18:00:03.898Z,14.35
2023-04-20T18:02:53.331Z,14.36
2023-04-20T18:05:27.818Z,14.23
2023-04-20T18:08:00.609Z,14.12
2023-04-20T18:10:33.988Z,14.04
2023-04-20T18:13:06.932Z,14.00
2023-04-20T18:15:40.229Z,13.98
2023-04-20T18:18:16.639Z,13.97
2023-04-20T18:21:00.057Z,13.95
2023-04-20T18:23:33.777Z,13.92
2023-04-20T18:26:08.608Z,13.92
2023-04-20T18:28:41.680Z,13.91
2023-04-20T18:31:15.200Z,13.83
2023-04-20T18:33:49.639Z,13.73
2023-04-20T18:36:22.780Z,13.73
2023-04-20T18:38:57.247Z,13.70
2023-04-20T18:41:30.044Z,13.68
2023-04-20T18:44:02.925Z,13.59
2023-04-20T18:46:35.706Z,13.51
2023-04-20T18:49:22.695Z,13.57
2023-04-20T18:51:55.492Z,13.53
2023-04-20T18:54:28.711Z,13.48
2023-04-20T18:57:04.025Z,13.41
2023-04-20T18:59:38.759Z,13.42
2023-04-20T19:02:13.539Z,13.44
2023-04-20T19:04:52.799Z,13.37
2023-04-20T19:07:25.920Z,13.24
2023-04-20T19:09:58.967Z,13.26
2023-04-20T19:12:32.612Z,13.27
2023-04-20T19:15:06.506Z,13.19
2023-04-20T19:17:39.398Z,13.21
2023-04-20T19:20:13.824Z,13.18
2023-04-20T19:22:46.670Z,13.13
2023-04-20T19:25:20.318Z,13.06
2023-04-20T19:27:53.259Z,13.04
2023-04-20T19:30:26.022Z,12.97
2023-04-20T19:33:02.259Z,12.93
2023-04-20T19:35:36.743Z,12.92
2023-04-20T19:38:09.737Z,12.93
2023-04-20T19:40:45.474Z,12.84
2023-04-20T19:43:18.294Z,12.90
2023-04-20T19:45:51.008Z,12.81
2023-04-20T19:48:24.260Z,12.81
2023-04-20T19:50:59.705Z,12.80
2023-04-20T19:53:32.533Z,12.61
2023-04-20T19:56:07.679Z,12.66
2023-04-20T19:58:43.809Z,12.63
2023-04-20T20:01:16.783Z,12.44
2023-04-20T20:03:49.978Z,12.41
2023-04-20T20:06:24.373Z,12.53
2023-04-20T20:08:58.994Z,12.53
2023-04-20T20:11:32.510Z,12.49
2023-04-20T20:14:05.518Z,12.37
2023-04-20T20:16:39.625Z,12.43
2023-04-20T20:19:12.503Z,12.36
2023-04-20T20:21:49.465Z,12.34
2023-04-20T20:24:24.058Z,12.26
2023-04-20T20:26:57.613Z,12.39
2023-04-20T20:29:30.550Z,12.25
2023-04-20T20:32:03.204Z,12.26
2023-04-20T20:34:38.637Z,12.22
2023-04-20T20:37:12.796Z,12.23
2023-04-20T20:39:45.824Z,12.17
2023-04-20T20:42:19.231Z,12.08
2023-04-20T20:44:52.553Z,11.98
2023-04-20T20:47:25.491Z,11.96
2023-04-20T20:49:58.104Z,11.95
2023-04-20T20:52:32.456Z,12.03
2023-04-20T20:55:13.046Z,11.98
2023-04-20T20:57:47.998Z,12.02
2023-04-20T21:00:28.566Z,11.92
2023-04-20T21:03:04.348Z,11.92
2023-04-20T21:05:37.244Z,12.03
2023-04-20T21:08:11.561Z,12.01
2023-04-20T21:10:46.788Z,11.91
2023-04-20T21:13:21.640Z,11.93
2023-04-20T21:15:54.485Z,11.94
2023-04-20T21:18:31.513Z,11.91
2023-04-20T21:21:04.484Z,11.84
2023-04-20T21:23:38.700Z,11.84
2023-04-20T21:26:11.774Z,11.84
2023-04-20T21:28:44.579Z,11.86
2023-04-20T21:31:17.536Z,11.93
2023-04-20T21:33:50.277Z,11.91
2023-04-20T21:36:23.229Z,11.95
2023-04-20T21:38:57.143Z,11.94
2023-04-20T21:41:32.208Z,11.96
2023-04-20T21:44:05.085Z,11.91
2023-04-20T21:46:37.689Z,11.87
2023-04-20T21:49:10.671Z,11.76
2023-04-20T21:51:43.471Z,11.89
2023-04-20T21:54:17.575Z,11.78
2023-04-20T21:56:50.461Z,11.83
2023-04-20T21:59:23.251Z,11.87
2023-04-20T22:01:56.205Z,11.84
2023-04-20T22:04:29.838Z,11.84
2023-04-20T22:07:02.651Z,11.77
2023-04-20T22:09:36.756Z,11.88
2023-04-20T22:12:09.587Z,11.82
2023-04-20T22:14:42.292Z,11.84
2023-04-20T22:17:15.960Z,11.87
2023-04-20T22:19:48.901Z,11.89
2023-04-20T22:22:21.833Z,11.91
2023-04-20T22:24:55.836Z,11.87
2023-04-20T22:27:29.022Z,11.87
2023-04-20T22:30:01.891Z,11.87
2023-04-20T22:32:34.572Z,11.84
2023-04-20T22:35:08.242Z,11.83
2023-04-20T22:37:41.249Z,11.86
2023-04-20T22:40:15.643Z,11.88
2023-04-20T22:42:48.465Z,11.82
2023-04-20T22:45:21.936Z,11.83
2023-04-20T22:47:54.782Z,11.88
2023-04-20T22:50:27.707Z,11.86
2023-04-20T22:53:00.720Z,11.87
2023-04-20T22:55:35.034Z,11.86
2023-04-20T22:58:07.995Z,11.92
2023-04-20T23:00:43.165Z,11.87
2023-04-20T23:03:16.261Z,11.86
2023-04-20T23:05:49.231Z,11.84
2023-04-20T23:08:22.016Z,11.85
2023-04-20T23:10:56.294Z,11.88
2023-04-20T23:13:29.164Z,11.88
2023-04-20T23:16:01.931Z,11.88
2023-04-20T23:18:35.009Z,11.89
2023-04-20T23:21:07.875Z,11.97
2023-04-20T23:23:42.798Z,11.87
2023-04-20T23:26:17.059Z,11.88
2023-04-20T23:28:51.549Z,11.81
2023-04-20T23:31:24.732Z,11.87
2023-04-20T23:33:57.517Z,11.87
2023-04-20T23:36:30.550Z,11.85
2023-04-20T23:39:03.404Z,11.87
2023-04-20T23:41:45.677Z,11.83
2023-04-20T23:44:18.778Z,11.78
2023-04-20T23:46:51.496Z,11.81
2023-04-20T23:49:24.323Z,11.79
2023-04-20T23:51:57.073Z,11.82
2023-04-20T23:54:31.775Z,11.83
2023-04-20T23:57:07.309Z,11.81
2023-04-20T23:59:40.159Z,11.82
